createdAt,value
2019-05-25T00:00:01.588Z,1011.00
2019-05-25T00:01:01.611Z,1011.05
2019-05-25T00:02:01.788Z,1011.09
2019-05-25T00:03:01.643Z,1011.06
2019-05-25T00:04:01.784Z,1011.06
2019-05-25T00:05:01.593Z,1011.08
2019-05-25T00:06:01.574Z,1011.05
2019-05-25T00:07:01.568Z,1011.07
2019-05-25T00:08:01.572Z,1011.09
2019-05-25T00:09:01.579Z,1011.09
2019-05-25T00:10:01.575Z,1011.11
2019-05-25T00:11:01.570Z,1011.10
2019-05-25T00:12:01.586Z,1011.16
2019-05-25T00:13:01.760Z,1011.13
2019-05-25T00:14:01.753Z,1011.15
2019-05-25T00:15:01.613Z,1011.12
2019-05-25T00:16:01.555Z,1011.15
2019-05-25T00:17:01.538Z,1011.10
2019-05-25T00:18:01.544Z,1011.06
2019-05-25T00:19:01.547Z,1011.09
2019-05-25T00:20:01.768Z,1011.11
2019-05-25T00:21:01.537Z,1011.12
2019-05-25T00:22:01.729Z,1011.12
2019-05-25T00:23:01.518Z,1011.13
2019-05-25T00:24:11.648Z,1011.11
2019-05-25T00:25:01.528Z,1011.13
2019-05-25T00:26:01.521Z,1011.12
2019-05-25T00:27:01.507Z,1011.13
2019-05-25T00:28:01.704Z,1011.09
2019-05-25T00:29:01.528Z,1011.11
2019-05-25T00:30:01.510Z,1011.12
2019-05-25T00:31:01.504Z,1011.15
2019-05-25T00:32:01.499Z,1011.11
2019-05-25T00:33:01.496Z,1011.15
2019-05-25T00:34:01.687Z,1011.13
2019-05-25T00:35:01.492Z,1011.13
2019-05-25T00:36:01.486Z,1011.09
2019-05-25T00:37:01.472Z,1011.08
2019-05-25T00:38:01.688Z,1011.05
2019-05-25T00:39:01.477Z,1011.06
2019-05-25T00:40:01.467Z,1011.02
2019-05-25T00:41:01.459Z,1011.04
2019-05-25T00:42:01.456Z,1011.10
2019-05-25T00:43:01.457Z,1011.11
2019-05-25T00:44:01.481Z,1011.11
2019-05-25T00:45:01.449Z,1011.14
2019-05-25T00:46:01.447Z,1011.15
2019-05-25T00:47:01.464Z,1011.14
2019-05-25T00:48:01.442Z,1011.09
2019-05-25T00:49:01.447Z,1011.11
2019-05-25T00:50:01.451Z,1011.10
2019-05-25T00:51:01.419Z,1011.12
2019-05-25T00:52:01.423Z,1011.14
2019-05-25T00:53:01.415Z,1011.13
2019-05-25T00:54:01.412Z,1011.11
2019-05-25T00:55:01.419Z,1011.12
2019-05-25T00:56:01.401Z,1011.14
2019-05-25T00:57:01.404Z,1011.11
2019-05-25T00:58:01.413Z,1011.11
2019-05-25T00:59:01.397Z,1011.07
2019-05-25T01:00:01.614Z,1011.10
2019-05-25T01:01:01.398Z,1011.08
2019-05-25T01:02:01.396Z,1011.08
2019-05-25T01:03:01.397Z,1011.09
2019-05-25T01:04:01.376Z,1011.09
2019-05-25T01:05:01.380Z,1011.10
2019-05-25T01:06:01.382Z,1011.11
2019-05-25T01:07:01.364Z,1011.11
2019-05-25T01:08:01.365Z,1011.12
2019-05-25T01:09:01.368Z,1011.12
2019-05-25T01:10:01.660Z,1011.13
2019-05-25T01:11:01.357Z,1011.10
2019-05-25T01:12:01.367Z,1011.10
2019-05-25T01:13:01.362Z,1011.07
2019-05-25T01:14:01.351Z,1011.09
2019-05-25T01:15:01.350Z,1011.08
2019-05-25T01:16:01.333Z,1011.05
2019-05-25T01:17:01.370Z,1011.05
2019-05-25T01:18:01.341Z,1011.07
2019-05-25T01:19:01.332Z,1011.06
2019-05-25T01:20:01.340Z,1011.05
2019-05-25T01:21:01.537Z,1011.04
2019-05-25T01:22:01.306Z,1011.02
2019-05-25T01:23:01.306Z,1011.06
2019-05-25T01:24:01.318Z,1011.04
2019-05-25T01:25:01.529Z,1011.02
2019-05-25T01:26:01.296Z,1011.00
2019-05-25T01:27:01.293Z,1011.05
2019-05-25T01:28:01.496Z,1011.04
2019-05-25T01:29:01.286Z,1010.98
2019-05-25T01:30:01.278Z,1010.99
2019-05-25T01:31:01.487Z,1010.99
2019-05-25T01:32:01.473Z,1010.98
2019-05-25T01:33:01.294Z,1010.99
2019-05-25T01:34:01.282Z,1010.96
2019-05-25T01:35:01.268Z,1010.94
2019-05-25T01:36:01.259Z,1011.00
2019-05-25T01:37:01.256Z,1011.02
2019-05-25T01:38:01.270Z,1011.02
2019-05-25T01:39:01.266Z,1011.02
2019-05-25T01:40:01.263Z,1011.02
2019-05-25T01:41:01.252Z,1011.03
2019-05-25T01:42:01.233Z,1011.01
2019-05-25T01:43:01.432Z,1011.01
2019-05-25T01:44:01.432Z,1011.01
2019-05-25T01:45:01.243Z,1011.07
2019-05-25T01:46:01.218Z,1011.10
2019-05-25T01:47:01.211Z,1011.08
2019-05-25T01:48:01.210Z,1011.09
2019-05-25T01:49:01.220Z,1011.11
2019-05-25T01:50:01.211Z,1011.10
2019-05-25T01:51:01.209Z,1011.10
2019-05-25T01:52:01.207Z,1011.14
2019-05-25T01:53:01.208Z,1011.17
2019-05-25T01:54:01.200Z,1011.18
2019-05-25T01:55:01.188Z,1011.12
2019-05-25T01:56:01.192Z,1011.11
2019-05-25T01:57:01.200Z,1011.11
2019-05-25T01:58:01.183Z,1011.14
2019-05-25T01:59:01.167Z,1011.11
2019-05-25T02:00:01.176Z,1011.14
2019-05-25T02:01:01.176Z,1011.18
2019-05-25T02:02:01.188Z,1011.20
2019-05-25T02:03:01.179Z,1011.20
2019-05-25T02:04:01.161Z,1011.19
2019-05-25T02:05:01.157Z,1011.20
2019-05-25T02:06:01.138Z,1011.20
2019-05-25T02:07:01.158Z,1011.23
2019-05-25T02:08:01.148Z,1011.18
2019-05-25T02:09:01.150Z,1011.23
2019-05-25T02:10:01.142Z,1011.21
2019-05-25T02:11:01.147Z,1011.23
2019-05-25T02:12:01.121Z,1011.24
2019-05-25T02:13:01.123Z,1011.24
2019-05-25T02:14:01.141Z,1011.24
2019-05-25T02:15:01.126Z,1011.25
2019-05-25T02:16:01.100Z,1011.25
2019-05-25T02:17:01.100Z,1011.20
2019-05-25T02:18:01.112Z,1011.24
2019-05-25T02:19:01.089Z,1011.22
2019-05-25T02:20:01.089Z,1011.22
2019-05-25T02:21:01.093Z,1011.23
2019-05-25T02:22:01.103Z,1011.26
2019-05-25T02:23:01.073Z,1011.22
2019-05-25T02:24:01.117Z,1011.27
2019-05-25T02:25:16.261Z,1011.22
2019-05-25T02:26:01.055Z,1011.18
2019-05-25T02:27:01.068Z,1011.19
2019-05-25T02:28:01.064Z,1011.18
2019-05-25T02:29:01.043Z,1011.18
2019-05-25T02:30:01.061Z,1011.21
2019-05-25T02:31:01.048Z,1011.19
2019-05-25T02:32:01.046Z,1011.22
2019-05-25T02:33:01.041Z,1011.21
2019-05-25T02:34:01.069Z,1011.22
2019-05-25T02:35:01.034Z,1011.20
2019-05-25T02:36:01.039Z,1011.21
2019-05-25T02:37:01.029Z,1011.21
2019-05-25T02:38:01.004Z,1011.24
2019-05-25T02:39:01.206Z,1011.24
2019-05-25T02:40:01.005Z,1011.19
2019-05-25T02:41:00.996Z,1011.21
2019-05-25T02:42:01.196Z,1011.21
2019-05-25T02:43:00.987Z,1011.19
2019-05-25T02:44:00.980Z,1011.23
2019-05-25T02:45:00.987Z,1011.23
2019-05-25T02:46:01.194Z,1011.23
2019-05-25T02:47:00.982Z,1011.25
2019-05-25T02:48:00.981Z,1011.24
2019-05-25T02:49:00.966Z,1011.23
2019-05-25T02:50:00.973Z,1011.24
2019-05-25T02:51:00.975Z,1011.24
2019-05-25T02:52:00.944Z,1011.22
2019-05-25T02:53:00.955Z,1011.25
2019-05-25T02:54:00.942Z,1011.24
2019-05-25T02:55:00.937Z,1011.22
2019-05-25T02:56:00.941Z,1011.22
2019-05-25T02:57:00.940Z,1011.27
2019-05-25T02:58:00.949Z,1011.28
2019-05-25T02:59:00.918Z,1011.21
2019-05-25T03:00:00.936Z,1011.24
2019-05-25T03:01:00.922Z,1011.23
2019-05-25T03:02:00.914Z,1011.23
2019-05-25T03:03:00.899Z,1011.23
2019-05-25T03:04:00.913Z,1011.27
2019-05-25T03:05:00.897Z,1011.26
2019-05-25T03:06:00.886Z,1011.29
2019-05-25T03:07:00.886Z,1011.28
2019-05-25T03:08:00.875Z,1011.28
2019-05-25T03:09:00.872Z,1011.32
2019-05-25T03:10:00.885Z,1011.30
2019-05-25T03:11:00.866Z,1011.32
2019-05-25T03:12:00.860Z,1011.30
2019-05-25T03:13:00.875Z,1011.34
2019-05-25T03:14:00.860Z,1011.32
2019-05-25T03:15:00.931Z,1011.31
2019-05-25T03:16:00.847Z,1011.28
2019-05-25T03:17:00.847Z,1011.26
2019-05-25T03:18:00.838Z,1011.29
2019-05-25T03:19:00.831Z,1011.28
2019-05-25T03:20:00.830Z,1011.31
2019-05-25T03:21:00.835Z,1011.33
2019-05-25T03:22:00.829Z,1011.31
2019-05-25T03:23:00.839Z,1011.32
2019-05-25T03:24:00.815Z,1011.30
2019-05-25T03:25:00.808Z,1011.31
2019-05-25T03:26:00.811Z,1011.30
2019-05-25T03:27:00.805Z,1011.35
2019-05-25T03:28:00.933Z,1011.37
2019-05-25T03:29:00.805Z,1011.37
2019-05-25T03:30:00.795Z,1011.39
2019-05-25T03:31:00.793Z,1011.38
2019-05-25T03:32:00.797Z,1011.43
2019-05-25T03:33:00.785Z,1011.49
2019-05-25T03:34:00.772Z,1011.49
2019-05-25T03:35:00.773Z,1011.51
2019-05-25T03:36:00.767Z,1011.51
2019-05-25T03:37:00.776Z,1011.55
2019-05-25T03:38:00.751Z,1011.50
2019-05-25T03:39:00.752Z,1011.53
2019-05-25T03:40:00.752Z,1011.51
2019-05-25T03:41:00.954Z,1011.55
2019-05-25T03:42:00.744Z,1011.59
2019-05-25T03:43:00.754Z,1011.55
2019-05-25T03:44:00.751Z,1011.57
2019-05-25T03:45:00.735Z,1011.58
2019-05-25T03:46:00.725Z,1011.60
2019-05-25T03:47:00.707Z,1011.58
2019-05-25T03:48:00.711Z,1011.61
2019-05-25T03:49:00.708Z,1011.57
2019-05-25T03:50:00.705Z,1011.61
2019-05-25T03:51:00.691Z,1011.58
2019-05-25T03:52:00.687Z,1011.60
2019-05-25T03:53:00.691Z,1011.60
2019-05-25T03:54:00.688Z,1011.62
2019-05-25T03:55:00.696Z,1011.64
2019-05-25T03:56:06.013Z,1011.68
2019-05-25T03:57:00.667Z,1011.67
2019-05-25T03:58:00.674Z,1011.66
2019-05-25T03:59:00.717Z,1011.66
2019-05-25T04:00:00.670Z,1011.66
2019-05-25T04:01:00.650Z,1011.67
2019-05-25T04:02:00.654Z,1011.71
2019-05-25T04:03:00.669Z,1011.71
2019-05-25T04:04:00.657Z,1011.76
2019-05-25T04:05:00.634Z,1011.76
2019-05-25T04:06:00.858Z,1011.76
2019-05-25T04:07:00.823Z,1011.75
2019-05-25T04:08:00.614Z,1011.76
2019-05-25T04:09:00.610Z,1011.80
2019-05-25T04:10:00.621Z,1011.78
2019-05-25T04:11:00.635Z,1011.79
2019-05-25T04:12:00.616Z,1011.78
2019-05-25T04:13:00.806Z,1011.81
2019-05-25T04:14:00.797Z,1011.83
2019-05-25T04:15:00.790Z,1011.81
2019-05-25T04:16:00.811Z,1011.84
2019-05-25T04:17:00.781Z,1011.84
2019-05-25T04:18:00.815Z,1011.89
2019-05-25T04:19:00.783Z,1011.89
2019-05-25T04:20:00.766Z,1011.89
2019-05-25T04:21:00.574Z,1011.94
2019-05-25T04:22:00.572Z,1011.95
2019-05-25T04:23:00.769Z,1011.93
2019-05-25T04:24:00.573Z,1011.91
2019-05-25T04:25:00.545Z,1011.91
2019-05-25T04:26:00.551Z,1011.94
2019-05-25T04:27:00.540Z,1011.97
2019-05-25T04:28:00.533Z,1011.97
2019-05-25T04:29:00.542Z,1012.03
2019-05-25T04:30:00.539Z,1012.02
2019-05-25T04:31:00.538Z,1012.04
2019-05-25T04:32:00.520Z,1012.08
2019-05-25T04:33:00.535Z,1012.11
2019-05-25T04:34:00.507Z,1012.07
2019-05-25T04:35:00.715Z,1012.10
2019-05-25T04:36:00.499Z,1012.14
2019-05-25T04:37:00.515Z,1012.10
2019-05-25T04:38:00.707Z,1012.13
2019-05-25T04:39:00.496Z,1012.11
2019-05-25T04:40:00.482Z,1012.13
2019-05-25T04:41:00.501Z,1012.15
2019-05-25T04:42:00.497Z,1012.14
2019-05-25T04:43:00.485Z,1012.15
2019-05-25T04:44:00.697Z,1012.15
2019-05-25T04:45:00.467Z,1012.15
2019-05-25T04:46:00.478Z,1012.12
2019-05-25T04:47:00.468Z,1012.16
2019-05-25T04:48:00.684Z,1012.11
2019-05-25T04:49:00.676Z,1012.16
2019-05-25T04:50:00.455Z,1012.13
2019-05-25T04:51:00.451Z,1012.17
2019-05-25T04:52:00.450Z,1012.18
2019-05-25T04:53:00.428Z,1012.18
2019-05-25T04:54:00.422Z,1012.20
2019-05-25T04:55:00.436Z,1012.18
2019-05-25T04:56:00.624Z,1012.17
2019-05-25T04:57:00.420Z,1012.15
2019-05-25T04:58:00.421Z,1012.16
2019-05-25T04:59:00.421Z,1012.12
2019-05-25T05:00:00.403Z,1012.13
2019-05-25T05:01:00.437Z,1012.13
2019-05-25T05:02:00.484Z,1012.15
2019-05-25T05:03:00.397Z,1012.14
2019-05-25T05:04:00.387Z,1012.15
2019-05-25T05:05:00.593Z,1012.14
2019-05-25T05:06:00.382Z,1012.11
2019-05-25T05:07:00.386Z,1012.11
2019-05-25T05:08:00.383Z,1012.12
2019-05-25T05:09:00.375Z,1012.11
2019-05-25T05:10:03.035Z,1012.08
2019-05-25T05:11:00.360Z,1012.08
2019-05-25T05:12:00.569Z,1012.11
2019-05-25T05:13:00.366Z,1012.14
2019-05-25T05:14:00.354Z,1012.17
2019-05-25T05:15:00.341Z,1012.16
2019-05-25T05:16:00.340Z,1012.16
2019-05-25T05:17:00.329Z,1012.18
2019-05-25T05:18:00.328Z,1012.16
2019-05-25T05:19:00.335Z,1012.22
2019-05-25T05:20:00.318Z,1012.20
2019-05-25T05:21:00.324Z,1012.22
2019-05-25T05:22:00.314Z,1012.26
2019-05-25T05:23:00.315Z,1012.27
2019-05-25T05:24:00.297Z,1012.29
2019-05-25T05:25:00.293Z,1012.25
2019-05-25T05:26:00.306Z,1012.28
2019-05-25T05:27:00.297Z,1012.27
2019-05-25T05:28:00.288Z,1012.27
2019-05-25T05:29:00.496Z,1012.22
2019-05-25T05:30:00.289Z,1012.28
2019-05-25T05:31:00.268Z,1012.27
2019-05-25T05:32:00.292Z,1012.28
2019-05-25T05:33:00.468Z,1012.30
2019-05-25T05:34:00.300Z,1012.32
2019-05-25T05:35:00.257Z,1012.31
2019-05-25T05:36:00.256Z,1012.29
2019-05-25T05:37:00.475Z,1012.27
2019-05-25T05:38:00.253Z,1012.26
2019-05-25T05:39:00.459Z,1012.28
2019-05-25T05:40:00.232Z,1012.29
2019-05-25T05:41:00.264Z,1012.33
2019-05-25T05:42:00.238Z,1012.33
2019-05-25T05:43:00.243Z,1012.32
2019-05-25T05:44:00.215Z,1012.30
2019-05-25T05:45:00.433Z,1012.29
2019-05-25T05:46:00.231Z,1012.31
2019-05-25T05:47:00.206Z,1012.30
2019-05-25T05:48:00.201Z,1012.34
2019-05-25T05:49:00.200Z,1012.35
2019-05-25T05:50:00.196Z,1012.35
2019-05-25T05:51:00.192Z,1012.38
2019-05-25T05:52:00.184Z,1012.39
2019-05-25T05:53:00.213Z,1012.35
2019-05-25T05:54:00.179Z,1012.36
2019-05-25T05:55:00.173Z,1012.36
2019-05-25T05:56:00.196Z,1012.36
2019-05-25T05:57:11.895Z,1012.33
2019-05-25T05:58:00.166Z,1012.35
2019-05-25T05:59:00.168Z,1012.37
2019-05-25T06:00:00.373Z,1012.39
2019-05-25T06:01:00.151Z,1012.34
2019-05-25T06:02:00.158Z,1012.34
2019-05-25T06:03:00.160Z,1012.33
2019-05-25T06:04:00.346Z,1012.33
2019-05-25T06:05:00.361Z,1012.35
2019-05-25T06:06:00.368Z,1012.37
2019-05-25T06:07:00.143Z,1012.38
2019-05-25T06:08:00.127Z,1012.38
2019-05-25T06:09:00.133Z,1012.44
2019-05-25T06:10:00.193Z,1012.46
2019-05-25T06:11:00.144Z,1012.41
2019-05-25T06:12:00.109Z,1012.42
2019-05-25T06:13:00.109Z,1012.41
2019-05-25T06:14:00.125Z,1012.45
2019-05-25T06:15:00.115Z,1012.47
2019-05-25T06:16:00.102Z,1012.48
2019-05-25T06:17:00.106Z,1012.51
2019-05-25T06:18:00.105Z,1012.51
2019-05-25T06:19:00.102Z,1012.51
2019-05-25T06:20:00.084Z,1012.52
2019-05-25T06:21:00.096Z,1012.51
2019-05-25T06:22:00.089Z,1012.50
2019-05-25T06:23:00.075Z,1012.50
2019-05-25T06:24:00.079Z,1012.54
2019-05-25T06:25:00.283Z,1012.56
2019-05-25T06:26:00.291Z,1012.53
2019-05-25T06:27:00.270Z,1012.54
2019-05-25T06:28:00.073Z,1012.55
2019-05-25T06:29:00.277Z,1012.51
2019-05-25T06:30:00.059Z,1012.50
2019-05-25T06:31:00.058Z,1012.51
2019-05-25T06:32:00.281Z,1012.48
2019-05-25T06:33:00.074Z,1012.49
2019-05-25T06:34:00.051Z,1012.53
2019-05-25T06:35:00.071Z,1012.57
2019-05-25T06:36:00.054Z,1012.57
2019-05-25T06:37:00.234Z,1012.61
2019-05-25T06:38:00.032Z,1012.62
2019-05-25T06:39:00.038Z,1012.64
2019-05-25T06:40:00.231Z,1012.67
2019-05-25T06:41:00.083Z,1012.63
2019-05-25T06:42:00.242Z,1012.65
2019-05-25T06:43:00.013Z,1012.67
2019-05-25T06:44:00.019Z,1012.68
2019-05-25T06:45:00.034Z,1012.71
2019-05-25T06:46:00.010Z,1012.77
2019-05-25T06:47:00.011Z,1012.72
2019-05-25T06:47:59.999Z,1012.73
2019-05-25T06:49:00.010Z,1012.72
2019-05-25T06:49:59.991Z,1012.72
2019-05-25T06:50:59.988Z,1012.76
2019-05-25T06:51:59.994Z,1012.71
2019-05-25T06:52:59.990Z,1012.73
2019-05-25T06:54:00.040Z,1012.78
2019-05-25T06:54:59.995Z,1012.72
2019-05-25T06:55:59.977Z,1012.74
2019-05-25T06:56:59.985Z,1012.80
2019-05-25T06:57:59.974Z,1012.73
2019-05-25T06:58:59.979Z,1012.76
2019-05-25T06:59:59.978Z,1012.76
2019-05-25T07:00:59.979Z,1012.82
2019-05-25T07:02:00.167Z,1012.85
2019-05-25T07:03:00.162Z,1012.78
2019-05-25T07:03:59.965Z,1012.80
2019-05-25T07:05:00.167Z,1012.81
2019-05-25T07:05:59.954Z,1012.80
2019-05-25T07:06:59.949Z,1012.82
2019-05-25T07:07:59.947Z,1012.85
2019-05-25T07:08:59.940Z,1012.86
2019-05-25T07:09:59.937Z,1012.89
2019-05-25T07:10:59.946Z,1012.88
2019-05-25T07:11:59.944Z,1012.85
2019-05-25T07:12:59.942Z,1012.86
2019-05-25T07:13:59.959Z,1012.86
2019-05-25T07:14:59.928Z,1012.92
2019-05-25T07:15:59.940Z,1012.93
2019-05-25T07:16:59.915Z,1012.95
2019-05-25T07:17:59.925Z,1012.95
2019-05-25T07:18:59.919Z,1012.94
2019-05-25T07:19:59.905Z,1012.98
2019-05-25T07:20:59.900Z,1012.94
2019-05-25T07:21:59.905Z,1012.91
2019-05-25T07:22:59.916Z,1012.94
2019-05-25T07:23:59.914Z,1012.96
2019-05-25T07:24:59.891Z,1012.94
2019-05-25T07:25:59.887Z,1013.00
2019-05-25T07:26:59.918Z,1013.00
2019-05-25T07:28:00.498Z,1012.98
2019-05-25T07:28:59.893Z,1012.97
2019-05-25T07:29:59.889Z,1012.95
2019-05-25T07:30:59.884Z,1012.97
2019-05-25T07:31:59.889Z,1012.96
2019-05-25T07:32:59.887Z,1012.97
2019-05-25T07:33:59.883Z,1012.96
2019-05-25T07:34:59.866Z,1012.98
2019-05-25T07:35:59.895Z,1012.98
2019-05-25T07:36:59.854Z,1012.98
2019-05-25T07:37:59.865Z,1012.97
2019-05-25T07:38:59.852Z,1012.93
2019-05-25T07:39:59.843Z,1013.00
2019-05-25T07:40:59.849Z,1012.96
2019-05-25T07:41:59.845Z,1012.95
2019-05-25T07:43:00.051Z,1012.96
2019-05-25T07:43:59.840Z,1012.94
2019-05-25T07:44:59.839Z,1012.95
2019-05-25T07:45:59.834Z,1013.00
2019-05-25T07:46:59.822Z,1013.01
2019-05-25T07:47:59.843Z,1013.00
2019-05-25T07:48:59.846Z,1013.00
2019-05-25T07:49:59.823Z,1012.97
2019-05-25T07:50:59.828Z,1012.97
2019-05-25T07:52:02.673Z,1012.98
2019-05-25T07:52:59.809Z,1013.00
2019-05-25T07:53:59.807Z,1012.96
2019-05-25T07:54:59.803Z,1013.00
2019-05-25T07:55:59.808Z,1012.99
2019-05-25T07:56:59.807Z,1013.00
2019-05-25T07:58:15.733Z,1012.98
2019-05-25T07:58:59.796Z,1012.95
2019-05-25T07:59:59.783Z,1012.94
2019-05-25T08:00:59.985Z,1012.96
2019-05-25T08:01:59.779Z,1012.97
2019-05-25T08:02:59.771Z,1013.03
2019-05-25T08:03:59.770Z,1013.04
2019-05-25T08:04:59.775Z,1013.02
2019-05-25T08:05:59.765Z,1012.99
2019-05-25T08:06:59.766Z,1013.02
2019-05-25T08:07:59.786Z,1012.98
2019-05-25T08:08:59.773Z,1013.00
2019-05-25T08:09:59.752Z,1013.00
2019-05-25T08:10:59.758Z,1013.02
2019-05-25T08:11:59.758Z,1013.01
2019-05-25T08:12:59.755Z,1012.96
2019-05-25T08:13:59.739Z,1012.97
2019-05-25T08:14:59.750Z,1012.97
2019-05-25T08:15:59.750Z,1013.00
2019-05-25T08:16:59.937Z,1012.97
2019-05-25T08:17:59.739Z,1013.01
2019-05-25T08:18:59.731Z,1013.01
2019-05-25T08:19:59.722Z,1013.00
2019-05-25T08:20:59.742Z,1013.00
2019-05-25T08:21:59.738Z,1012.99
2019-05-25T08:22:59.741Z,1013.00
2019-05-25T08:23:59.723Z,1013.00
2019-05-25T08:24:59.718Z,1013.00
2019-05-25T08:25:59.712Z,1013.01
2019-05-25T08:26:59.729Z,1013.02
2019-05-25T08:27:59.710Z,1013.04
2019-05-25T08:28:59.698Z,1012.98
2019-05-25T08:29:59.693Z,1013.03
2019-05-25T08:31:01.466Z,1013.01
2019-05-25T08:31:59.689Z,1013.05
2019-05-25T08:32:59.697Z,1013.03
2019-05-25T08:33:59.681Z,1013.05
2019-05-25T08:34:59.676Z,1013.07
2019-05-25T08:35:59.678Z,1013.03
2019-05-25T08:36:59.683Z,1013.07
2019-05-25T08:37:59.681Z,1013.08
2019-05-25T08:38:59.678Z,1013.06
2019-05-25T08:39:59.678Z,1013.05
2019-05-25T08:40:59.676Z,1013.05
2019-05-25T08:41:59.672Z,1013.04
2019-05-25T08:42:59.669Z,1013.02
2019-05-25T08:43:59.652Z,1013.02
2019-05-25T08:44:59.649Z,1012.99
2019-05-25T08:45:59.666Z,1013.02
2019-05-25T08:46:59.661Z,1013.07
2019-05-25T08:47:59.657Z,1013.06
2019-05-25T08:48:59.651Z,1013.06
2019-05-25T08:49:59.651Z,1013.03
2019-05-25T08:50:59.868Z,1013.03
2019-05-25T08:51:59.636Z,1013.07
2019-05-25T08:52:59.629Z,1013.03
2019-05-25T08:53:59.634Z,1013.05
2019-05-25T08:54:59.630Z,1013.04
2019-05-25T08:55:59.641Z,1013.01
2019-05-25T08:56:59.622Z,1013.07
2019-05-25T08:57:59.634Z,1013.06
2019-05-25T08:58:59.619Z,1013.04
2019-05-25T08:59:59.622Z,1013.05
2019-05-25T09:00:59.624Z,1013.06
2019-05-25T09:01:59.626Z,1013.04
2019-05-25T09:02:59.607Z,1012.99
2019-05-25T09:03:59.614Z,1013.03
2019-05-25T09:04:59.617Z,1013.05
2019-05-25T09:05:59.601Z,1013.02
2019-05-25T09:06:59.605Z,1013.01
2019-05-25T09:07:59.599Z,1013.02
2019-05-25T09:08:59.604Z,1013.07
2019-05-25T09:09:59.595Z,1013.05
2019-05-25T09:10:59.586Z,1013.03
2019-05-25T09:11:59.595Z,1013.07
2019-05-25T09:12:59.781Z,1013.07
2019-05-25T09:13:59.596Z,1013.08
2019-05-25T09:14:59.588Z,1013.08
2019-05-25T09:15:59.571Z,1013.08
2019-05-25T09:16:59.571Z,1013.06
2019-05-25T09:17:59.583Z,1013.03
2019-05-25T09:18:59.568Z,1012.99
2019-05-25T09:19:59.576Z,1013.02
2019-05-25T09:20:59.764Z,1012.98
2019-05-25T09:22:03.091Z,1012.98
2019-05-25T09:22:59.572Z,1012.96
2019-05-25T09:23:59.804Z,1012.99
2019-05-25T09:24:59.579Z,1013.01
2019-05-25T09:25:59.751Z,1013.01
2019-05-25T09:26:59.558Z,1013.01
2019-05-25T09:27:59.746Z,1013.05
2019-05-25T09:29:04.387Z,1013.00
2019-05-25T09:29:59.539Z,1013.01
2019-05-25T09:30:59.739Z,1013.01
2019-05-25T09:31:59.540Z,1013.05
2019-05-25T09:32:59.544Z,1013.00
2019-05-25T09:33:59.753Z,1012.99
2019-05-25T09:34:59.734Z,1012.97
2019-05-25T09:35:59.519Z,1013.02
2019-05-25T09:36:59.531Z,1013.02
2019-05-25T09:37:59.729Z,1013.04
2019-05-25T09:38:59.722Z,1013.02
2019-05-25T09:39:59.524Z,1013.02
2019-05-25T09:40:59.514Z,1013.06
2019-05-25T09:41:59.508Z,1013.05
2019-05-25T09:42:59.504Z,1013.05
2019-05-25T09:43:59.525Z,1013.04
2019-05-25T09:44:59.517Z,1013.05
2019-05-25T09:46:02.721Z,1013.05
2019-05-25T09:46:59.505Z,1013.09
2019-05-25T09:47:59.496Z,1013.12
2019-05-25T09:48:59.491Z,1013.08
2019-05-25T09:49:59.490Z,1013.09
2019-05-25T09:50:59.501Z,1013.10
2019-05-25T09:51:59.504Z,1013.07
2019-05-25T09:52:59.489Z,1013.06
2019-05-25T09:53:59.479Z,1013.05
2019-05-25T09:54:59.546Z,1013.01
2019-05-25T09:55:59.488Z,1013.01
2019-05-25T09:56:59.483Z,1012.99
2019-05-25T09:57:59.474Z,1013.02
2019-05-25T09:58:59.475Z,1012.96
2019-05-25T09:59:59.481Z,1012.98
2019-05-25T10:00:59.486Z,1013.02
2019-05-25T10:01:59.512Z,1013.01
2019-05-25T10:02:59.485Z,1013.02
2019-05-25T10:03:59.466Z,1013.03
2019-05-25T10:04:59.464Z,1012.99
2019-05-25T10:05:59.469Z,1012.98
2019-05-25T10:06:59.461Z,1012.95
2019-05-25T10:07:59.451Z,1012.99
2019-05-25T10:08:59.463Z,1012.99
2019-05-25T10:09:59.470Z,1012.96
2019-05-25T10:10:59.450Z,1013.02
2019-05-25T10:11:59.463Z,1012.98
2019-05-25T10:12:59.440Z,1012.99
2019-05-25T10:13:59.436Z,1012.97
2019-05-25T10:14:59.436Z,1013.01
2019-05-25T10:15:59.448Z,1012.99
2019-05-25T10:16:59.439Z,1012.99
2019-05-25T10:17:59.442Z,1012.97
2019-05-25T10:18:59.441Z,1013.00
2019-05-25T10:19:59.431Z,1013.00
2019-05-25T10:20:59.426Z,1012.96
2019-05-25T10:21:59.781Z,1012.95
2019-05-25T10:22:59.443Z,1012.95
2019-05-25T10:23:59.620Z,1012.97
2019-05-25T10:24:59.436Z,1012.94
2019-05-25T10:25:59.620Z,1012.97
2019-05-25T10:26:59.418Z,1012.95
2019-05-25T10:27:59.422Z,1012.97
2019-05-25T10:28:59.421Z,1012.94
2019-05-25T10:29:59.403Z,1012.96
2019-05-25T10:30:59.399Z,1013.00
2019-05-25T10:31:59.411Z,1013.01
2019-05-25T10:32:59.420Z,1013.01
2019-05-25T10:33:59.400Z,1013.00
2019-05-25T10:34:59.607Z,1013.00
2019-05-25T10:35:59.405Z,1013.01
2019-05-25T10:36:59.444Z,1013.00
2019-05-25T10:37:59.433Z,1013.00
2019-05-25T10:38:59.397Z,1012.96
2019-05-25T10:39:59.386Z,1012.94
2019-05-25T10:40:59.388Z,1012.95
2019-05-25T10:41:59.385Z,1012.97
2019-05-25T10:42:59.375Z,1012.93
2019-05-25T10:43:59.373Z,1012.96
2019-05-25T10:44:59.390Z,1012.94
2019-05-25T10:45:59.371Z,1012.94
2019-05-25T10:46:59.390Z,1012.92
2019-05-25T10:47:59.381Z,1012.91
2019-05-25T10:48:59.380Z,1012.89
2019-05-25T10:49:59.362Z,1012.91
2019-05-25T10:50:59.367Z,1012.87
2019-05-25T10:51:59.360Z,1012.90
2019-05-25T10:52:59.359Z,1012.86
2019-05-25T10:53:59.368Z,1012.88
2019-05-25T10:54:59.357Z,1012.88
2019-05-25T10:55:59.378Z,1012.88
2019-05-25T10:56:59.358Z,1012.89
2019-05-25T10:57:59.360Z,1012.88
2019-05-25T10:58:59.351Z,1012.90
2019-05-25T10:59:59.344Z,1012.88
2019-05-25T11:00:59.350Z,1012.90
2019-05-25T11:01:59.344Z,1012.86
2019-05-25T11:02:59.358Z,1012.92
2019-05-25T11:03:59.335Z,1012.87
2019-05-25T11:04:59.334Z,1012.88
2019-05-25T11:05:59.346Z,1012.86
2019-05-25T11:06:59.351Z,1012.86
2019-05-25T11:07:59.339Z,1012.86
2019-05-25T11:08:59.334Z,1012.90
2019-05-25T11:09:59.376Z,1012.92
2019-05-25T11:10:59.341Z,1012.91
2019-05-25T11:11:59.347Z,1012.86
2019-05-25T11:12:59.354Z,1012.89
2019-05-25T11:13:59.321Z,1012.90
2019-05-25T11:14:59.316Z,1012.85
2019-05-25T11:15:59.312Z,1012.86
2019-05-25T11:16:59.313Z,1012.87
2019-05-25T11:17:59.351Z,1012.87
2019-05-25T11:18:59.313Z,1012.85
2019-05-25T11:19:59.347Z,1012.87
2019-05-25T11:20:59.318Z,1012.85
2019-05-25T11:21:59.316Z,1012.84
2019-05-25T11:22:59.297Z,1012.86
2019-05-25T11:23:59.306Z,1012.85
2019-05-25T11:24:59.311Z,1012.86
2019-05-25T11:25:59.309Z,1012.86
2019-05-25T11:26:59.777Z,1012.88
2019-05-25T11:27:59.303Z,1012.89
2019-05-25T11:30:08.526Z,1012.88
2019-05-25T11:30:59.301Z,1012.91
2019-05-25T11:32:03.857Z,1012.89
2019-05-25T11:32:59.282Z,1012.86
2019-05-25T11:33:59.285Z,1012.88
2019-05-25T11:34:59.291Z,1012.83
2019-05-25T11:35:59.300Z,1012.80
2019-05-25T11:36:59.289Z,1012.79
2019-05-25T11:37:59.271Z,1012.80
2019-05-25T11:38:59.272Z,1012.83
2019-05-25T11:39:59.274Z,1012.82
2019-05-25T11:40:59.270Z,1012.81
2019-05-25T11:41:59.270Z,1012.76
2019-05-25T11:42:59.279Z,1012.83
2019-05-25T11:43:59.277Z,1012.81
2019-05-25T11:44:59.273Z,1012.80
2019-05-25T11:45:59.263Z,1012.79
2019-05-25T11:46:59.279Z,1012.81
2019-05-25T11:47:59.280Z,1012.84
2019-05-25T11:48:59.261Z,1012.83
2019-05-25T11:49:59.277Z,1012.81
2019-05-25T11:50:59.282Z,1012.78
2019-05-25T11:51:59.249Z,1012.75
2019-05-25T11:52:59.271Z,1012.75
2019-05-25T11:53:59.246Z,1012.75
2019-05-25T11:54:59.456Z,1012.73
2019-05-25T11:55:59.453Z,1012.73
2019-05-25T11:56:59.240Z,1012.75
2019-05-25T11:57:59.239Z,1012.74
2019-05-25T11:58:59.242Z,1012.73
2019-05-25T11:59:59.234Z,1012.68
2019-05-25T12:00:59.281Z,1012.72
2019-05-25T12:01:59.253Z,1012.70
2019-05-25T12:02:59.234Z,1012.73
2019-05-25T12:03:59.238Z,1012.68
2019-05-25T12:04:59.232Z,1012.67
2019-05-25T12:05:59.227Z,1012.70